sensor_id;sensor_type;location;lat;lon;timestamp;P1;durP1;ratioP1;P2;durP2;ratioP2
42110;SDS011;27766;52.174;5.456;2022-07-17T00:02:10;5.28;;;2.50;;
42110;SDS011;27766;52.174;5.456;2022-07-17T00:04:41;3.95;;;1.95;;
42110;SDS011;27766;52.174;5.456;2022-07-17T00:07:09;9.90;;;2.72;;
42110;SDS011;27766;52.174;5.456;2022-07-17T00:09:40;5.43;;;2.50;;
42110;SDS011;27766;52.174;5.456;2022-07-17T00:12:10;4.90;;;3.15;;
42110;SDS011;27766;52.174;5.456;2022-07-17T00:14:40;12.07;;;6.57;;
42110;SDS011;27766;52.174;5.456;2022-07-17T00:17:09;7.65;;;4.43;;
42110;SDS011;27766;52.174;5.456;2022-07-17T00:19:40;8.57;;;4.85;;
42110;SDS011;27766;52.174;5.456;2022-07-17T00:22:10;15.95;;;6.30;;
42110;SDS011;27766;52.174;5.456;2022-07-17T00:24:39;13.48;;;7.80;;
42110;SDS011;27766;52.174;5.456;2022-07-17T00:27:06;25.05;;;8.70;;
42110;SDS011;27766;52.174;5.456;2022-07-17T00:29:36;16.27;;;8.82;;
42110;SDS011;27766;52.174;5.456;2022-07-17T00:32:06;11.52;;;7.00;;
42110;SDS011;27766;52.174;5.456;2022-07-17T00:34:36;10.77;;;8.02;;
42110;SDS011;27766;52.174;5.456;2022-07-17T00:37:06;9.48;;;6.72;;
42110;SDS011;27766;52.174;5.456;2022-07-17T00:39:36;9.80;;;6.47;;
42110;SDS011;27766;52.174;5.456;2022-07-17T00:42:14;9.23;;;6.43;;
42110;SDS011;27766;52.174;5.456;2022-07-17T00:44:43;9.90;;;6.20;;
42110;SDS011;27766;52.174;5.456;2022-07-17T00:47:14;8.30;;;5.25;;
42110;SDS011;27766;52.174;5.456;2022-07-17T00:49:43;10.18;;;5.60;;
42110;SDS011;27766;52.174;5.456;2022-07-17T00:52:11;15.68;;;5.25;;
42110;SDS011;27766;52.174;5.456;2022-07-17T00:54:41;10.23;;;5.40;;
42110;SDS011;27766;52.174;5.456;2022-07-17T00:57:13;10.80;;;5.55;;
42110;SDS011;27766;52.174;5.456;2022-07-17T00:59:42;12.02;;;5.32;;
42110;SDS011;27766;52.174;5.456;2022-07-17T01:02:12;5.60;;;3.97;;
42110;SDS011;27766;52.174;5.456;2022-07-17T01:04:43;9.75;;;4.60;;
42110;SDS011;27766;52.174;5.456;2022-07-17T01:07:10;6.57;;;3.70;;
42110;SDS011;27766;52.174;5.456;2022-07-17T01:09:40;10.30;;;4.88;;
42110;SDS011;27766;52.174;5.456;2022-07-17T01:12:07;6.15;;;3.63;;
42110;SDS011;27766;52.174;5.456;2022-07-17T01:14:39;7.38;;;5.35;;
42110;SDS011;27766;52.174;5.456;2022-07-17T01:17:10;11.10;;;5.60;;
42110;SDS011;27766;52.174;5.456;2022-07-17T01:19:41;8.02;;;4.78;;
42110;SDS011;27766;52.174;5.456;2022-07-17T01:22:11;8.43;;;5.32;;
42110;SDS011;27766;52.174;5.456;2022-07-17T01:24:40;7.78;;;5.25;;
42110;SDS011;27766;52.174;5.456;2022-07-17T01:27:10;10.63;;;5.50;;
42110;SDS011;27766;52.174;5.456;2022-07-17T01:29:39;9.80;;;5.05;;
42110;SDS011;27766;52.174;5.456;2022-07-17T01:32:07;8.57;;;4.63;;
42110;SDS011;27766;52.174;5.456;2022-07-17T01:34:40;6.63;;;4.55;;
42110;SDS011;27766;52.174;5.456;2022-07-17T01:37:09;8.55;;;5.57;;
42110;SDS011;27766;52.174;5.456;2022-07-17T01:39:40;7.07;;;5.72;;
42110;SDS011;27766;52.174;5.456;2022-07-17T01:42:20;9.00;;;6.22;;
42110;SDS011;27766;52.174;5.456;2022-07-17T01:44:49;9.88;;;6.07;;
42110;SDS011;27766;52.174;5.456;2022-07-17T01:47:16;8.45;;;5.82;;
42110;SDS011;27766;52.174;5.456;2022-07-17T01:49:44;16.15;;;4.80;;
42110;SDS011;27766;52.174;5.456;2022-07-17T01:52:15;8.13;;;4.80;;
42110;SDS011;27766;52.174;5.456;2022-07-17T01:54:42;8.73;;;4.45;;
42110;SDS011;27766;52.174;5.456;2022-07-17T01:57:10;5.93;;;3.25;;
42110;SDS011;27766;52.174;5.456;2022-07-17T01:59:40;7.90;;;3.10;;
42110;SDS011;27766;52.174;5.456;2022-07-17T02:02:11;4.53;;;2.92;;
42110;SDS011;27766;52.174;5.456;2022-07-17T02:04:42;3.95;;;2.70;;
42110;SDS011;27766;52.174;5.456;2022-07-17T02:07:10;9.45;;;3.42;;
42110;SDS011;27766;52.174;5.456;2022-07-17T02:09:40;6.43;;;2.92;;
42110;SDS011;27766;52.174;5.456;2022-07-17T02:12:07;4.30;;;2.28;;
42110;SDS011;27766;52.174;5.456;2022-07-17T02:14:39;5.93;;;2.67;;
42110;SDS011;27766;52.174;5.456;2022-07-17T02:17:06;8.90;;;3.33;;
42110;SDS011;27766;52.174;5.456;2022-07-17T02:19:38;3.70;;;2.20;;
42110;SDS011;27766;52.174;5.456;2022-07-17T02:22:06;6.70;;;2.33;;
42110;SDS011;27766;52.174;5.456;2022-07-17T02:24:36;6.97;;;2.60;;
42110;SDS011;27766;52.174;5.456;2022-07-17T02:27:10;3.50;;;2.25;;
42110;SDS011;27766;52.174;5.456;2022-07-17T02:29:40;3.20;;;2.15;;
42110;SDS011;27766;52.174;5.456;2022-07-17T02:32:10;3.95;;;2.58;;
42110;SDS011;27766;52.174;5.456;2022-07-17T02:34:39;7.00;;;2.40;;
42110;SDS011;27766;52.174;5.456;2022-07-17T02:37:10;3.92;;;2.70;;
42110;SDS011;27766;52.174;5.456;2022-07-17T02:39:39;7.45;;;2.80;;
42110;SDS011;27766;52.174;5.456;2022-07-17T02:42:26;6.22;;;2.70;;
42110;SDS011;27766;52.174;5.456;2022-07-17T02:44:55;9.68;;;2.22;;
42110;SDS011;27766;52.174;5.456;2022-07-17T02:47:27;4.70;;;2.50;;
42110;SDS011;27766;52.174;5.456;2022-07-17T02:49:59;3.58;;;2.10;;
42110;SDS011;27766;52.174;5.456;2022-07-17T02:52:28;4.00;;;2.25;;
42110;SDS011;27766;52.174;5.456;2022-07-17T02:54:55;3.75;;;2.30;;
42110;SDS011;27766;52.174;5.456;2022-07-17T02:57:22;11.73;;;3.00;;
42110;SDS011;27766;52.174;5.456;2022-07-17T02:59:49;6.97;;;2.50;;
42110;SDS011;27766;52.174;5.456;2022-07-17T03:02:16;6.43;;;2.85;;
42110;SDS011;27766;52.174;5.456;2022-07-17T03:04:45;5.80;;;2.58;;
42110;SDS011;27766;52.174;5.456;2022-07-17T03:07:12;9.20;;;2.60;;
42110;SDS011;27766;52.174;5.456;2022-07-17T03:09:42;3.67;;;2.40;;
42110;SDS011;27766;52.174;5.456;2022-07-17T03:12:10;7.72;;;2.35;;
42110;SDS011;27766;52.174;5.456;2022-07-17T03:14:37;4.00;;;2.70;;
42110;SDS011;27766;52.174;5.456;2022-07-17T03:17:11;4.15;;;2.97;;
42110;SDS011;27766;52.174;5.456;2022-07-17T03:19:41;4.47;;;2.35;;
42110;SDS011;27766;52.174;5.456;2022-07-17T03:22:10;3.88;;;2.70;;
42110;SDS011;27766;52.174;5.456;2022-07-17T03:24:40;11.63;;;3.10;;
42110;SDS011;27766;52.174;5.456;2022-07-17T03:27:10;3.58;;;2.85;;
42110;SDS011;27766;52.174;5.456;2022-07-17T03:29:40;4.05;;;2.97;;
42110;SDS011;27766;52.174;5.456;2022-07-17T03:32:07;3.55;;;2.65;;
42110;SDS011;27766;52.174;5.456;2022-07-17T03:34:40;4.05;;;2.58;;
42110;SDS011;27766;52.174;5.456;2022-07-17T03:37:10;4.22;;;2.75;;
42110;SDS011;27766;52.174;5.456;2022-07-17T03:39:37;4.93;;;3.20;;
42110;SDS011;27766;52.174;5.456;2022-07-17T03:42:11;11.95;;;2.88;;
42110;SDS011;27766;52.174;5.456;2022-07-17T03:44:40;3.30;;;2.53;;
42110;SDS011;27766;52.174;5.456;2022-07-17T03:47:10;6.18;;;2.75;;
42110;SDS011;27766;52.174;5.456;2022-07-17T03:49:37;4.13;;;3.00;;
42110;SDS011;27766;52.174;5.456;2022-07-17T03:52:10;4.93;;;3.20;;
42110;SDS011;27766;52.174;5.456;2022-07-17T03:54:40;4.10;;;2.90;;
42110;SDS011;27766;52.174;5.456;2022-07-17T03:57:07;4.10;;;2.83;;
42110;SDS011;27766;52.174;5.456;2022-07-17T03:59:41;3.70;;;2.50;;
42110;SDS011;27766;52.174;5.456;2022-07-17T04:02:11;5.88;;;2.88;;
42110;SDS011;27766;52.174;5.456;2022-07-17T04:04:40;6.28;;;2.70;;
42110;SDS011;27766;52.174;5.456;2022-07-17T04:07:07;6.35;;;3.17;;
42110;SDS011;27766;52.174;5.456;2022-07-17T04:09:55;4.45;;;2.80;;
42110;SDS011;27766;52.174;5.456;2022-07-17T04:12:24;3.65;;;2.63;;
42110;SDS011;27766;52.174;5.456;2022-07-17T04:14:51;6.53;;;2.92;;
42110;SDS011;27766;52.174;5.456;2022-07-17T04:17:19;4.57;;;3.22;;
42110;SDS011;27766;52.174;5.456;2022-07-17T04:19:46;7.28;;;2.92;;
42110;SDS011;27766;52.174;5.456;2022-07-17T04:22:13;4.47;;;2.83;;
42110;SDS011;27766;52.174;5.456;2022-07-17T04:24:41;4.88;;;2.67;;
42110;SDS011;27766;52.174;5.456;2022-07-17T04:27:11;5.93;;;3.00;;
42110;SDS011;27766;52.174;5.456;2022-07-17T04:29:40;3.63;;;2.60;;
42110;SDS011;27766;52.174;5.456;2022-07-17T04:32:10;4.93;;;2.90;;
42110;SDS011;27766;52.174;5.456;2022-07-17T04:34:37;7.18;;;2.65;;
42110;SDS011;27766;52.174;5.456;2022-07-17T04:37:12;3.22;;;2.35;;
42110;SDS011;27766;52.174;5.456;2022-07-17T04:39:41;6.75;;;2.90;;
42110;SDS011;27766;52.174;5.456;2022-07-17T04:42:10;4.78;;;2.38;;
42110;SDS011;27766;52.174;5.456;2022-07-17T04:44:37;5.90;;;2.22;;
42110;SDS011;27766;52.174;5.456;2022-07-17T04:47:10;8.77;;;2.53;;
42110;SDS011;27766;52.174;5.456;2022-07-17T04:49:37;3.72;;;2.20;;
42110;SDS011;27766;52.174;5.456;2022-07-17T04:52:10;4.70;;;2.08;;
42110;SDS011;27766;52.174;5.456;2022-07-17T04:54:37;2.80;;;2.25;;
42110;SDS011;27766;52.174;5.456;2022-07-17T04:57:07;3.05;;;2.17;;
42110;SDS011;27766;52.174;5.456;2022-07-17T04:59:36;5.65;;;2.13;;
42110;SDS011;27766;52.174;5.456;2022-07-17T05:02:06;3.38;;;2.20;;
42110;SDS011;27766;52.174;5.456;2022-07-17T05:04:36;7.00;;;2.10;;
42110;SDS011;27766;52.174;5.456;2022-07-17T05:07:11;4.20;;;2.30;;
42110;SDS011;27766;52.174;5.456;2022-07-17T05:09:41;4.32;;;2.10;;
42110;SDS011;27766;52.174;5.456;2022-07-17T05:12:11;5.53;;;2.05;;
42110;SDS011;27766;52.174;5.456;2022-07-17T05:14:41;2.38;;;1.77;;
42110;SDS011;27766;52.174;5.456;2022-07-17T05:17:10;3.33;;;2.10;;
42110;SDS011;27766;52.174;5.456;2022-07-17T05:19:37;4.07;;;2.28;;
42110;SDS011;27766;52.174;5.456;2022-07-17T05:22:10;6.68;;;2.47;;
42110;SDS011;27766;52.174;5.456;2022-07-17T05:24:37;7.53;;;2.17;;
42110;SDS011;27766;52.174;5.456;2022-07-17T05:27:07;3.22;;;2.08;;
42110;SDS011;27766;52.174;5.456;2022-07-17T05:29:37;7.25;;;1.95;;
42110;SDS011;27766;52.174;5.456;2022-07-17T05:32:10;3.50;;;1.63;;
42110;SDS011;27766;52.174;5.456;2022-07-17T05:34:37;3.45;;;1.83;;
42110;SDS011;27766;52.174;5.456;2022-07-17T05:37:07;3.63;;;2.10;;
42110;SDS011;27766;52.174;5.456;2022-07-17T05:39:36;4.15;;;1.60;;
42110;SDS011;27766;52.174;5.456;2022-07-17T05:42:07;3.45;;;1.80;;
42110;SDS011;27766;52.174;5.456;2022-07-17T05:44:37;4.47;;;1.73;;
42110;SDS011;27766;52.174;5.456;2022-07-17T05:47:07;3.80;;;2.22;;
42110;SDS011;27766;52.174;5.456;2022-07-17T05:49:37;8.43;;;2.08;;
42110;SDS011;27766;52.174;5.456;2022-07-17T05:52:07;2.70;;;1.58;;
42110;SDS011;27766;52.174;5.456;2022-07-17T05:54:40;4.10;;;2.05;;
42110;SDS011;27766;52.174;5.456;2022-07-17T05:57:07;2.17;;;1.70;;
42110;SDS011;27766;52.174;5.456;2022-07-17T05:59:40;10.38;;;2.05;;
42110;SDS011;27766;52.174;5.456;2022-07-17T06:02:07;5.30;;;2.22;;
42110;SDS011;27766;52.174;5.456;2022-07-17T06:04:37;12.45;;;2.20;;
42110;SDS011;27766;52.174;5.456;2022-07-17T06:07:12;4.72;;;1.63;;
42110;SDS011;27766;52.174;5.456;2022-07-17T06:09:41;3.47;;;1.58;;
42110;SDS011;27766;52.174;5.456;2022-07-17T06:12:10;3.55;;;2.00;;
42110;SDS011;27766;52.174;5.456;2022-07-17T06:14:37;6.05;;;2.25;;
42110;SDS011;27766;52.174;5.456;2022-07-17T06:17:06;3.70;;;1.38;;
42110;SDS011;27766;52.174;5.456;2022-07-17T06:19:41;6.18;;;2.00;;
42110;SDS011;27766;52.174;5.456;2022-07-17T06:22:11;4.97;;;1.40;;
42110;SDS011;27766;52.174;5.456;2022-07-17T06:24:40;2.63;;;1.45;;
42110;SDS011;27766;52.174;5.456;2022-07-17T06:27:07;6.53;;;1.77;;
42110;SDS011;27766;52.174;5.456;2022-07-17T06:29:41;4.05;;;1.88;;
42110;SDS011;27766;52.174;5.456;2022-07-17T06:32:20;3.47;;;1.60;;
42110;SDS011;27766;52.174;5.456;2022-07-17T06:34:47;3.83;;;1.73;;
42110;SDS011;27766;52.174;5.456;2022-07-17T06:37:14;6.18;;;1.83;;
42110;SDS011;27766;52.174;5.456;2022-07-17T06:39:41;6.22;;;1.65;;
42110;SDS011;27766;52.174;5.456;2022-07-17T06:42:10;5.07;;;1.88;;
42110;SDS011;27766;52.174;5.456;2022-07-17T06:44:37;8.65;;;1.70;;
42110;SDS011;27766;52.174;5.456;2022-07-17T06:47:07;2.17;;;1.60;;
42110;SDS011;27766;52.174;5.456;2022-07-17T06:49:37;3.35;;;1.15;;
42110;SDS011;27766;52.174;5.456;2022-07-17T06:52:12;6.95;;;1.50;;
42110;SDS011;27766;52.174;5.456;2022-07-17T06:54:42;2.97;;;1.25;;
42110;SDS011;27766;52.174;5.456;2022-07-17T06:57:12;10.38;;;2.03;;
42110;SDS011;27766;52.174;5.456;2022-07-17T06:59:40;6.25;;;1.67;;
42110;SDS011;27766;52.174;5.456;2022-07-17T07:02:13;3.25;;;1.83;;
42110;SDS011;27766;52.174;5.456;2022-07-17T07:04:40;9.15;;;1.27;;
42110;SDS011;27766;52.174;5.456;2022-07-17T07:07:11;3.08;;;1.17;;
42110;SDS011;27766;52.174;5.456;2022-07-17T07:09:41;8.15;;;1.65;;
42110;SDS011;27766;52.174;5.456;2022-07-17T07:12:11;4.60;;;1.05;;
42110;SDS011;27766;52.174;5.456;2022-07-17T07:14:40;2.15;;;0.82;;
42110;SDS011;27766;52.174;5.456;2022-07-17T07:17:07;3.20;;;1.17;;
42110;SDS011;27766;52.174;5.456;2022-07-17T07:19:40;3.42;;;1.25;;
42110;SDS011;27766;52.174;5.456;2022-07-17T07:22:07;1.40;;;0.98;;
42110;SDS011;27766;52.174;5.456;2022-07-17T07:24:37;2.65;;;1.00;;
42110;SDS011;27766;52.174;5.456;2022-07-17T07:27:07;10.52;;;1.00;;
42110;SDS011;27766;52.174;5.456;2022-07-17T07:29:37;6.68;;;1.10;;
42110;SDS011;27766;52.174;5.456;2022-07-17T07:32:06;1.90;;;0.63;;
42110;SDS011;27766;52.174;5.456;2022-07-17T07:34:41;1.95;;;0.95;;
42110;SDS011;27766;52.174;5.456;2022-07-17T07:37:11;2.92;;;0.82;;
42110;SDS011;27766;52.174;5.456;2022-07-17T07:39:40;6.15;;;1.55;;
42110;SDS011;27766;52.174;5.456;2022-07-17T07:42:07;4.93;;;1.23;;
42110;SDS011;27766;52.174;5.456;2022-07-17T07:44:41;2.92;;;1.08;;
42110;SDS011;27766;52.174;5.456;2022-07-17T07:47:11;5.55;;;0.90;;
42110;SDS011;27766;52.174;5.456;2022-07-17T07:49:41;3.22;;;0.93;;
42110;SDS011;27766;52.174;5.456;2022-07-17T07:52:10;4.15;;;1.00;;
42110;SDS011;27766;52.174;5.456;2022-07-17T07:54:40;2.88;;;1.17;;
42110;SDS011;27766;52.174;5.456;2022-07-17T07:57:07;2.05;;;1.13;;
42110;SDS011;27766;52.174;5.456;2022-07-17T07:59:37;5.60;;;1.13;;
42110;SDS011;27766;52.174;5.456;2022-07-17T08:02:10;4.40;;;1.02;;
42110;SDS011;27766;52.174;5.456;2022-07-17T08:04:40;6.53;;;1.02;;
42110;SDS011;27766;52.174;5.456;2022-07-17T08:07:10;6.93;;;1.33;;
42110;SDS011;27766;52.174;5.456;2022-07-17T08:09:41;2.47;;;0.70;;
42110;SDS011;27766;52.174;5.456;2022-07-17T08:12:11;2.45;;;0.88;;
42110;SDS011;27766;52.174;5.456;2022-07-17T08:14:58;4.65;;;1.55;;
42110;SDS011;27766;52.174;5.456;2022-07-17T08:17:25;3.08;;;0.90;;
42110;SDS011;27766;52.174;5.456;2022-07-17T08:19:52;1.23;;;0.63;;
42110;SDS011;27766;52.174;5.456;2022-07-17T08:22:19;5.32;;;1.10;;
42110;SDS011;27766;52.174;5.456;2022-07-17T08:25:06;8.05;;;0.90;;
42110;SDS011;27766;52.174;5.456;2022-07-17T08:27:37;4.22;;;1.02;;
42110;SDS011;27766;52.174;5.456;2022-07-17T08:30:12;1.83;;;0.80;;
42110;SDS011;27766;52.174;5.456;2022-07-17T08:32:41;8.20;;;0.82;;
42110;SDS011;27766;52.174;5.456;2022-07-17T08:35:10;2.20;;;0.95;;
42110;SDS011;27766;52.174;5.456;2022-07-17T08:37:44;2.60;;;1.15;;
42110;SDS011;27766;52.174;5.456;2022-07-17T08:40:19;1.88;;;0.98;;
42110;SDS011;27766;52.174;5.456;2022-07-17T08:42:52;2.05;;;0.88;;
42110;SDS011;27766;52.174;5.456;2022-07-17T08:45:21;2.38;;;0.90;;
42110;SDS011;27766;52.174;5.456;2022-07-17T08:47:49;3.35;;;1.00;;
42110;SDS011;27766;52.174;5.456;2022-07-17T08:50:20;3.03;;;1.02;;
42110;SDS011;27766;52.174;5.456;2022-07-17T08:52:49;4.65;;;1.45;;
42110;SDS011;27766;52.174;5.456;2022-07-17T08:55:17;5.47;;;0.90;;
42110;SDS011;27766;52.174;5.456;2022-07-17T08:57:44;10.85;;;1.13;;
42110;SDS011;27766;52.174;5.456;2022-07-17T09:00:14;2.20;;;0.85;;
42110;SDS011;27766;52.174;5.456;2022-07-17T09:03:05;2.67;;;1.17;;
42110;SDS011;27766;52.174;5.456;2022-07-17T09:05:36;5.38;;;0.90;;
42110;SDS011;27766;52.174;5.456;2022-07-17T09:08:08;3.88;;;1.23;;
42110;SDS011;27766;52.174;5.456;2022-07-17T09:10:47;1.90;;;0.90;;
42110;SDS011;27766;52.174;5.456;2022-07-17T09:15:49;2.13;;;0.88;;
42110;SDS011;27766;52.174;5.456;2022-07-17T09:18:20;4.60;;;1.00;;
42110;SDS011;27766;52.174;5.456;2022-07-17T09:20:48;1.13;;;0.70;;
42110;SDS011;27766;52.174;5.456;2022-07-17T09:23:22;3.03;;;1.23;;
42110;SDS011;27766;52.174;5.456;2022-07-17T09:25:52;6.03;;;1.02;;
42110;SDS011;27766;52.174;5.456;2022-07-17T09:28:21;1.80;;;0.82;;
42110;SDS011;27766;52.174;5.456;2022-07-17T09:30:50;1.85;;;0.82;;
42110;SDS011;27766;52.174;5.456;2022-07-17T09:33:21;10.27;;;1.05;;
42110;SDS011;27766;52.174;5.456;2022-07-17T09:35:51;5.32;;;1.08;;
42110;SDS011;27766;52.174;5.456;2022-07-17T09:38:29;2.85;;;0.90;;
42110;SDS011;27766;52.174;5.456;2022-07-17T09:41:13;2.50;;;1.10;;
42110;SDS011;27766;52.174;5.456;2022-07-17T09:46:13;0.93;;;0.68;;
42110;SDS011;27766;52.174;5.456;2022-07-17T09:48:43;2.17;;;0.63;;
42110;SDS011;27766;52.174;5.456;2022-07-17T09:51:18;2.80;;;1.35;;
42110;SDS011;27766;52.174;5.456;2022-07-17T09:53:51;4.43;;;1.10;;
42110;SDS011;27766;52.174;5.456;2022-07-17T09:56:22;4.18;;;0.80;;
42110;SDS011;27766;52.174;5.456;2022-07-17T09:59:02;2.70;;;0.65;;
42110;SDS011;27766;52.174;5.456;2022-07-17T10:01:31;2.10;;;1.02;;
42110;SDS011;27766;52.174;5.456;2022-07-17T10:04:01;1.30;;;0.85;;
42110;SDS011;27766;52.174;5.456;2022-07-17T10:06:30;2.95;;;1.00;;
42110;SDS011;27766;52.174;5.456;2022-07-17T10:08:59;3.15;;;1.30;;
42110;SDS011;27766;52.174;5.456;2022-07-17T10:11:28;2.63;;;1.00;;
42110;SDS011;27766;52.174;5.456;2022-07-17T10:14:01;5.75;;;1.15;;
42110;SDS011;27766;52.174;5.456;2022-07-17T10:16:33;3.22;;;1.00;;
42110;SDS011;27766;52.174;5.456;2022-07-17T10:19:02;2.45;;;0.93;;
42110;SDS011;27766;52.174;5.456;2022-07-17T10:21:30;7.03;;;1.17;;
42110;SDS011;27766;52.174;5.456;2022-07-17T10:26:32;1.95;;;1.10;;
42110;SDS011;27766;52.174;5.456;2022-07-17T10:32:17;2.80;;;0.85;;
42110;SDS011;27766;52.174;5.456;2022-07-17T10:37:23;3.08;;;0.80;;
42110;SDS011;27766;52.174;5.456;2022-07-17T10:39:59;2.53;;;0.93;;
42110;SDS011;27766;52.174;5.456;2022-07-17T10:45:41;5.60;;;1.17;;
42110;SDS011;27766;52.174;5.456;2022-07-17T10:50:45;1.48;;;0.88;;
42110;SDS011;27766;52.174;5.456;2022-07-17T10:55:54;1.83;;;0.93;;
42110;SDS011;27766;52.174;5.456;2022-07-17T10:58:31;2.58;;;1.10;;
42110;SDS011;27766;52.174;5.456;2022-07-17T11:06:16;2.30;;;1.30;;
42110;SDS011;27766;52.174;5.456;2022-07-17T11:08:52;2.83;;;0.90;;
42110;SDS011;27766;52.174;5.456;2022-07-17T11:11:23;1.42;;;0.70;;
42110;SDS011;27766;52.174;5.456;2022-07-17T11:14:17;2.13;;;0.88;;
42110;SDS011;27766;52.174;5.456;2022-07-17T11:16:46;1.00;;;0.82;;
42110;SDS011;27766;52.174;5.456;2022-07-17T11:19:30;1.55;;;0.95;;
42110;SDS011;27766;52.174;5.456;2022-07-17T11:22:01;2.42;;;1.00;;
42110;SDS011;27766;52.174;5.456;2022-07-17T11:24:42;1.98;;;0.77;;
42110;SDS011;27766;52.174;5.456;2022-07-17T11:27:27;1.90;;;0.77;;
42110;SDS011;27766;52.174;5.456;2022-07-17T11:29:56;2.30;;;0.80;;
42110;SDS011;27766;52.174;5.456;2022-07-17T11:32:34;3.50;;;0.80;;
42110;SDS011;27766;52.174;5.456;2022-07-17T11:35:18;3.55;;;1.20;;
42110;SDS011;27766;52.174;5.456;2022-07-17T11:38:06;2.97;;;1.30;;
42110;SDS011;27766;52.174;5.456;2022-07-17T11:40:44;2.78;;;0.82;;
42110;SDS011;27766;52.174;5.456;2022-07-17T11:43:15;3.30;;;0.85;;
42110;SDS011;27766;52.174;5.456;2022-07-17T11:45:42;1.10;;;0.90;;
42110;SDS011;27766;52.174;5.456;2022-07-17T11:48:10;5.28;;;1.42;;
42110;SDS011;27766;52.174;5.456;2022-07-17T11:50:37;1.42;;;0.82;;
42110;SDS011;27766;52.174;5.456;2022-07-17T11:53:18;1.65;;;1.00;;
42110;SDS011;27766;52.174;5.456;2022-07-17T11:55:45;2.20;;;0.65;;
42110;SDS011;27766;52.174;5.456;2022-07-17T11:58:12;2.45;;;1.15;;
42110;SDS011;27766;52.174;5.456;2022-07-17T12:00:40;2.50;;;1.38;;
42110;SDS011;27766;52.174;5.456;2022-07-17T12:03:07;2.03;;;1.20;;
42110;SDS011;27766;52.174;5.456;2022-07-17T12:05:45;2.90;;;1.25;;
42110;SDS011;27766;52.174;5.456;2022-07-17T12:08:17;1.65;;;1.10;;
42110;SDS011;27766;52.174;5.456;2022-07-17T12:10:47;8.77;;;1.30;;
42110;SDS011;27766;52.174;5.456;2022-07-17T12:13:14;1.23;;;0.75;;
42110;SDS011;27766;52.174;5.456;2022-07-17T12:20:49;2.72;;;0.90;;
42110;SDS011;27766;52.174;5.456;2022-07-17T12:23:34;5.05;;;1.15;;
42110;SDS011;27766;52.174;5.456;2022-07-17T12:26:11;2.63;;;1.10;;
42110;SDS011;27766;52.174;5.456;2022-07-17T12:28:51;2.22;;;1.15;;
42110;SDS011;27766;52.174;5.456;2022-07-17T12:31:25;1.35;;;0.85;;
42110;SDS011;27766;52.174;5.456;2022-07-17T12:33:53;4.05;;;1.35;;
42110;SDS011;27766;52.174;5.456;2022-07-17T12:36:23;2.15;;;1.20;;
42110;SDS011;27766;52.174;5.456;2022-07-17T12:38:51;2.05;;;1.30;;
42110;SDS011;27766;52.174;5.456;2022-07-17T12:41:19;1.17;;;0.88;;
42110;SDS011;27766;52.174;5.456;2022-07-17T12:43:46;2.88;;;1.40;;
42110;SDS011;27766;52.174;5.456;2022-07-17T12:46:14;1.58;;;0.90;;
42110;SDS011;27766;52.174;5.456;2022-07-17T12:48:43;1.90;;;1.30;;
42110;SDS011;27766;52.174;5.456;2022-07-17T12:51:12;4.25;;;1.30;;
42110;SDS011;27766;52.174;5.456;2022-07-17T12:53:43;3.33;;;1.00;;
42110;SDS011;27766;52.174;5.456;2022-07-17T12:56:11;2.15;;;1.17;;
42110;SDS011;27766;52.174;5.456;2022-07-17T12:58:42;11.88;;;1.30;;
42110;SDS011;27766;52.174;5.456;2022-07-17T13:01:12;2.67;;;1.00;;
42110;SDS011;27766;52.174;5.456;2022-07-17T13:03:40;3.88;;;1.35;;
42110;SDS011;27766;52.174;5.456;2022-07-17T13:06:14;2.65;;;1.20;;
42110;SDS011;27766;52.174;5.456;2022-07-17T13:11:14;3.42;;;1.45;;
42110;SDS011;27766;52.174;5.456;2022-07-17T13:13:41;1.80;;;1.27;;
42110;SDS011;27766;52.174;5.456;2022-07-17T13:16:13;2.10;;;1.33;;
42110;SDS011;27766;52.174;5.456;2022-07-17T13:18:43;2.70;;;1.40;;
42110;SDS011;27766;52.174;5.456;2022-07-17T13:21:11;1.83;;;1.02;;
42110;SDS011;27766;52.174;5.456;2022-07-17T13:23:40;2.53;;;1.05;;
42110;SDS011;27766;52.174;5.456;2022-07-17T13:26:10;1.95;;;1.50;;
42110;SDS011;27766;52.174;5.456;2022-07-17T13:28:45;3.13;;;1.38;;
42110;SDS011;27766;52.174;5.456;2022-07-17T13:31:12;2.58;;;1.10;;
42110;SDS011;27766;52.174;5.456;2022-07-17T13:33:43;5.88;;;1.65;;
42110;SDS011;27766;52.174;5.456;2022-07-17T13:36:12;4.88;;;1.27;;
42110;SDS011;27766;52.174;5.456;2022-07-17T13:38:40;2.47;;;1.50;;
42110;SDS011;27766;52.174;5.456;2022-07-17T13:41:11;4.28;;;1.75;;
42110;SDS011;27766;52.174;5.456;2022-07-17T13:43:41;3.20;;;1.77;;
42110;SDS011;27766;52.174;5.456;2022-07-17T13:46:11;2.10;;;1.52;;
42110;SDS011;27766;52.174;5.456;2022-07-17T13:48:40;1.60;;;1.10;;
42110;SDS011;27766;52.174;5.456;2022-07-17T13:51:07;2.60;;;1.50;;
42110;SDS011;27766;52.174;5.456;2022-07-17T13:53:42;3.40;;;1.53;;
42110;SDS011;27766;52.174;5.456;2022-07-17T13:56:12;1.67;;;1.33;;
42110;SDS011;27766;52.174;5.456;2022-07-17T13:58:40;3.42;;;1.63;;
42110;SDS011;27766;52.174;5.456;2022-07-17T14:01:07;4.32;;;2.03;;
42110;SDS011;27766;52.174;5.456;2022-07-17T14:03:47;2.50;;;1.77;;
42110;SDS011;27766;52.174;5.456;2022-07-17T14:06:15;3.78;;;2.28;;
42110;SDS011;27766;52.174;5.456;2022-07-17T14:08:42;4.65;;;2.03;;
42110;SDS011;27766;52.174;5.456;2022-07-17T14:11:12;3.70;;;2.20;;
42110;SDS011;27766;52.174;5.456;2022-07-17T14:13:40;3.55;;;1.88;;
42110;SDS011;27766;52.174;5.456;2022-07-17T14:16:16;3.33;;;2.03;;
42110;SDS011;27766;52.174;5.456;2022-07-17T14:18:43;2.65;;;1.90;;
42110;SDS011;27766;52.174;5.456;2022-07-17T14:21:27;2.40;;;1.55;;
42110;SDS011;27766;52.174;5.456;2022-07-17T14:23:55;1.85;;;1.60;;
42110;SDS011;27766;52.174;5.456;2022-07-17T14:26:23;2.67;;;1.70;;
42110;SDS011;27766;52.174;5.456;2022-07-17T14:28:50;8.73;;;1.98;;
42110;SDS011;27766;52.174;5.456;2022-07-17T14:31:18;4.70;;;2.35;;
42110;SDS011;27766;52.174;5.456;2022-07-17T14:33:45;2.88;;;1.95;;
42110;SDS011;27766;52.174;5.456;2022-07-17T14:36:13;2.28;;;1.75;;
42110;SDS011;27766;52.174;5.456;2022-07-17T14:38:41;2.88;;;2.20;;
42110;SDS011;27766;52.174;5.456;2022-07-17T14:41:11;4.07;;;2.22;;
42110;SDS011;27766;52.174;5.456;2022-07-17T14:43:42;2.70;;;1.90;;
42110;SDS011;27766;52.174;5.456;2022-07-17T14:46:12;3.58;;;1.92;;
42110;SDS011;27766;52.174;5.456;2022-07-17T14:48:40;2.85;;;2.17;;
42110;SDS011;27766;52.174;5.456;2022-07-17T14:51:10;2.25;;;1.75;;
42110;SDS011;27766;52.174;5.456;2022-07-17T14:53:40;2.70;;;2.08;;
42110;SDS011;27766;52.174;5.456;2022-07-17T14:56:11;2.45;;;1.85;;
42110;SDS011;27766;52.174;5.456;2022-07-17T14:58:41;3.88;;;2.08;;
42110;SDS011;27766;52.174;5.456;2022-07-17T15:01:11;4.30;;;2.67;;
42110;SDS011;27766;52.174;5.456;2022-07-17T15:03:39;4.50;;;2.10;;
42110;SDS011;27766;52.174;5.456;2022-07-17T15:06:10;3.97;;;2.13;;
42110;SDS011;27766;52.174;5.456;2022-07-17T15:08:40;4.25;;;2.00;;
42110;SDS011;27766;52.174;5.456;2022-07-17T15:11:09;2.60;;;1.75;;
42110;SDS011;27766;52.174;5.456;2022-07-17T15:13:37;4.07;;;2.45;;
42110;SDS011;27766;52.174;5.456;2022-07-17T15:16:10;2.78;;;2.15;;
42110;SDS011;27766;52.174;5.456;2022-07-17T15:18:39;3.95;;;2.28;;
42110;SDS011;27766;52.174;5.456;2022-07-17T15:21:11;3.55;;;2.45;;
42110;SDS011;27766;52.174;5.456;2022-07-17T15:23:58;3.33;;;2.38;;
42110;SDS011;27766;52.174;5.456;2022-07-17T15:26:25;3.60;;;2.38;;
42110;SDS011;27766;52.174;5.456;2022-07-17T15:28:52;2.72;;;1.90;;
42110;SDS011;27766;52.174;5.456;2022-07-17T15:31:20;3.50;;;2.50;;
42110;SDS011;27766;52.174;5.456;2022-07-17T15:33:48;2.92;;;2.30;;
42110;SDS011;27766;52.174;5.456;2022-07-17T15:36:15;2.90;;;2.10;;
42110;SDS011;27766;52.174;5.456;2022-07-17T15:38:55;3.05;;;2.00;;
42110;SDS011;27766;52.174;5.456;2022-07-17T15:41:24;2.90;;;2.47;;